createdAt,value
2018-09-15T00:01:40.118Z,9.87
2018-09-15T00:04:09.569Z,13.03
2018-09-15T00:06:38.959Z,13.07
2018-09-15T00:09:09.523Z,10.20
2018-09-15T00:11:38.850Z,12.97
2018-09-15T00:14:08.222Z,12.50
2018-09-15T00:16:37.609Z,7.40
2018-09-15T00:19:06.948Z,8.67
2018-09-15T00:21:36.471Z,10.47
2018-09-15T00:24:05.868Z,12.00
2018-09-15T00:26:35.332Z,10.63
2018-09-15T00:29:04.695Z,12.73
2018-09-15T00:31:34.264Z,10.00
2018-09-15T00:34:03.709Z,12.27
2018-09-15T00:36:33.103Z,9.87
2018-09-15T00:39:02.755Z,9.93
2018-09-15T00:41:32.020Z,8.73
2018-09-15T00:44:01.829Z,11.10
2018-09-15T00:46:31.185Z,9.23
2018-09-15T00:49:00.473Z,11.03
2018-09-15T00:51:30.016Z,13.20
2018-09-15T00:53:59.443Z,7.83
2018-09-15T00:56:28.823Z,11.77
2018-09-15T00:58:58.130Z,10.43
2018-09-15T01:01:31.611Z,15.13
2018-09-15T01:04:02.110Z,13.83
2018-09-15T01:06:31.447Z,14.97
2018-09-15T01:09:00.798Z,8.73
2018-09-15T01:11:30.184Z,12.70
2018-09-15T01:13:59.567Z,11.90
2018-09-15T01:16:28.919Z,11.97
2018-09-15T01:18:58.332Z,13.50
2018-09-15T01:21:27.680Z,15.43
2018-09-15T01:23:57.099Z,14.43
2018-09-15T01:26:26.523Z,9.03
2018-09-15T01:28:56.230Z,11.07
2018-09-15T01:31:25.810Z,13.60
2018-09-15T01:33:55.317Z,12.47
2018-09-15T01:36:24.614Z,9.80
2018-09-15T01:38:54.072Z,13.37
2018-09-15T01:41:23.512Z,14.23
2018-09-15T01:43:53.030Z,13.30
2018-09-15T01:46:22.372Z,11.80
2018-09-15T01:48:51.909Z,14.97
2018-09-15T01:51:21.218Z,14.37
2018-09-15T01:53:50.671Z,17.60
2018-09-15T01:56:20.125Z,13.97
2018-09-15T01:58:50.448Z,8.93
2018-09-15T02:01:19.755Z,10.60
2018-09-15T02:03:49.095Z,11.23
2018-09-15T02:06:18.823Z,11.53
2018-09-15T02:08:48.259Z,9.83
2018-09-15T02:11:17.599Z,12.63
2018-09-15T02:13:47.163Z,11.63
2018-09-15T02:16:16.587Z,11.40
2018-09-15T02:18:46.089Z,9.47
2018-09-15T02:21:15.464Z,13.83
2018-09-15T02:23:44.909Z,11.40
2018-09-15T02:26:14.348Z,17.50
2018-09-15T02:28:43.692Z,14.53
2018-09-15T02:31:13.054Z,10.30
2018-09-15T02:33:42.389Z,11.67
2018-09-15T02:36:11.692Z,9.43
2018-09-15T02:38:40.985Z,13.33
2018-09-15T02:41:10.303Z,14.60
2018-09-15T02:43:39.761Z,11.93
2018-09-15T02:46:09.034Z,11.93
2018-09-15T02:48:38.322Z,13.47
2018-09-15T02:51:07.971Z,10.70
2018-09-15T02:53:38.104Z,10.53
2018-09-15T02:56:07.488Z,13.37
2018-09-15T02:58:36.833Z,12.13
2018-09-15T03:01:06.571Z,11.03
2018-09-15T03:03:35.975Z,17.13
2018-09-15T03:06:05.472Z,10.93
2018-09-15T03:08:34.884Z,10.10
2018-09-15T03:11:04.213Z,14.80
2018-09-15T03:13:33.624Z,14.00
2018-09-15T03:16:03.043Z,11.10
2018-09-15T03:18:32.491Z,16.23
2018-09-15T03:21:01.855Z,13.10
2018-09-15T03:23:31.253Z,10.70
2018-09-15T03:26:00.625Z,9.60
2018-09-15T03:28:29.977Z,11.17
2018-09-15T03:30:59.474Z,14.57
2018-09-15T03:33:28.759Z,12.07
2018-09-15T03:35:58.142Z,17.23
2018-09-15T03:38:27.611Z,12.00
2018-09-15T03:40:56.899Z,9.40
2018-09-15T03:43:26.414Z,11.63
2018-09-15T03:45:55.746Z,13.33
2018-09-15T03:48:25.066Z,12.33
2018-09-15T03:50:54.395Z,13.23
2018-09-15T03:53:23.793Z,12.60
2018-09-15T03:55:53.199Z,12.93
2018-09-15T03:58:22.518Z,13.23
2018-09-15T04:00:53.346Z,11.33
2018-09-15T04:03:23.474Z,11.03
2018-09-15T04:05:52.930Z,10.97
2018-09-15T04:08:22.250Z,11.03
2018-09-15T04:10:51.657Z,10.80
2018-09-15T04:13:21.011Z,14.27
2018-09-15T04:15:50.583Z,17.63
2018-09-15T04:18:20.083Z,11.67
2018-09-15T04:20:49.494Z,13.23
2018-09-15T04:23:18.809Z,15.70
2018-09-15T04:25:48.230Z,12.77
2018-09-15T04:28:17.488Z,13.13
2018-09-15T04:30:46.812Z,13.83
2018-09-15T04:33:16.138Z,11.83
2018-09-15T04:35:45.556Z,13.40
2018-09-15T04:38:15.002Z,13.80
2018-09-15T04:40:44.515Z,13.07
2018-09-15T04:43:13.951Z,11.90
2018-09-15T04:45:43.260Z,16.27
2018-09-15T04:48:12.760Z,13.00
2018-09-15T04:50:42.132Z,13.23
2018-09-15T04:53:11.446Z,13.17
2018-09-15T04:55:40.856Z,10.93
2018-09-15T04:58:10.240Z,12.03
2018-09-15T05:00:39.997Z,16.33
2018-09-15T05:03:09.407Z,10.40
2018-09-15T05:05:38.719Z,11.67
2018-09-15T05:08:08.073Z,11.23
2018-09-15T05:10:37.626Z,12.37
2018-09-15T05:13:07.013Z,13.03
2018-09-15T05:15:36.505Z,11.10
2018-09-15T05:18:05.901Z,8.90
2018-09-15T05:20:35.212Z,10.80
2018-09-15T05:23:04.536Z,17.67
2018-09-15T05:25:34.046Z,12.07
2018-09-15T05:28:03.386Z,13.87
2018-09-15T05:30:32.694Z,13.10
2018-09-15T05:33:02.010Z,12.50
2018-09-15T05:35:31.373Z,11.47
2018-09-15T05:38:00.810Z,11.57
2018-09-15T05:40:30.223Z,12.37
2018-09-15T05:42:59.559Z,12.47
2018-09-15T05:45:28.966Z,11.30
2018-09-15T05:47:58.257Z,14.27
2018-09-15T05:50:27.936Z,12.93
2018-09-15T05:52:57.252Z,16.53
2018-09-15T05:55:26.714Z,15.67
2018-09-15T05:57:56.208Z,11.37
2018-09-15T06:00:25.768Z,14.00
2018-09-15T06:02:55.055Z,15.63
2018-09-15T06:05:24.502Z,15.10
2018-09-15T06:07:53.811Z,11.80
2018-09-15T06:10:23.144Z,15.63
2018-09-15T06:12:52.496Z,11.37
2018-09-15T06:15:21.895Z,12.30
2018-09-15T06:17:51.427Z,14.37
2018-09-15T06:20:20.783Z,10.10
2018-09-15T06:22:50.102Z,17.43
2018-09-15T06:25:19.446Z,20.53
2018-09-15T06:27:48.903Z,15.10
2018-09-15T06:30:18.230Z,26.20
2018-09-15T06:32:47.655Z,10.50
2018-09-15T06:35:17.312Z,12.90
2018-09-15T06:37:46.676Z,14.00
2018-09-15T06:40:15.970Z,11.60
2018-09-15T06:42:45.247Z,16.73
2018-09-15T06:45:14.557Z,11.57
2018-09-15T06:47:43.827Z,13.33
2018-09-15T06:50:13.305Z,18.93
2018-09-15T06:52:42.692Z,12.40
2018-09-15T06:55:12.088Z,9.97
2018-09-15T06:57:41.582Z,12.70
2018-09-15T07:00:10.861Z,14.20
2018-09-15T07:02:41.116Z,14.23
2018-09-15T07:05:10.496Z,10.47
2018-09-15T07:07:39.904Z,9.10
2018-09-15T07:10:09.370Z,12.63
2018-09-15T07:12:38.746Z,13.97
2018-09-15T07:15:09.167Z,10.60
2018-09-15T07:17:38.534Z,14.90
2018-09-15T07:20:07.905Z,14.70
2018-09-15T07:22:37.344Z,10.60
2018-09-15T07:25:07.167Z,13.77
2018-09-15T07:27:36.475Z,11.63
2018-09-15T07:30:06.060Z,10.90
2018-09-15T07:32:35.534Z,13.90
2018-09-15T07:35:04.991Z,13.53
2018-09-15T07:37:34.471Z,8.87
2018-09-15T07:40:03.823Z,10.77
2018-09-15T07:42:33.257Z,11.87
2018-09-15T07:45:02.589Z,11.33
2018-09-15T07:47:32.002Z,10.50
2018-09-15T07:50:01.980Z,7.37
2018-09-15T07:52:31.340Z,13.27
2018-09-15T07:55:00.685Z,11.20
2018-09-15T07:57:30.130Z,9.40
2018-09-15T07:59:59.352Z,10.63
2018-09-15T08:02:28.697Z,11.33
2018-09-15T08:04:58.088Z,9.63
2018-09-15T08:07:27.502Z,8.43
2018-09-15T08:09:56.832Z,8.77
2018-09-15T08:12:26.235Z,9.23
2018-09-15T08:14:55.759Z,11.90
2018-09-15T08:17:25.071Z,4.33
2018-09-15T08:19:54.650Z,8.53
2018-09-15T08:22:24.035Z,7.03
2018-09-15T08:24:53.364Z,9.30
2018-09-15T08:27:22.780Z,9.33
2018-09-15T08:29:52.200Z,6.80
2018-09-15T08:32:22.562Z,6.67
2018-09-15T08:34:51.876Z,9.83
2018-09-15T08:37:21.776Z,10.23
2018-09-15T08:39:51.111Z,8.30
2018-09-15T08:42:20.503Z,8.90
2018-09-15T08:44:49.920Z,12.33
2018-09-15T08:47:19.363Z,8.73
2018-09-15T08:49:48.702Z,5.07
2018-09-15T08:52:18.042Z,6.77
2018-09-15T08:54:47.440Z,4.50
2018-09-15T08:57:17.009Z,8.27
2018-09-15T08:59:46.333Z,7.53
2018-09-15T09:02:15.685Z,5.37
2018-09-15T09:04:45.536Z,3.83
2018-09-15T09:07:15.122Z,6.70
2018-09-15T09:09:44.549Z,6.80
2018-09-15T09:12:13.838Z,5.73
2018-09-15T09:14:43.143Z,4.40
2018-09-15T09:17:12.462Z,3.93
2018-09-15T09:19:41.839Z,3.33
2018-09-15T09:22:11.279Z,9.73
2018-09-15T09:24:40.633Z,4.47
2018-09-15T09:27:10.010Z,5.20
2018-09-15T09:29:39.341Z,3.10
2018-09-15T09:32:09.087Z,7.10
2018-09-15T09:34:38.419Z,4.80
2018-09-15T09:37:08.068Z,4.37
2018-09-15T09:39:37.504Z,2.63
2018-09-15T09:42:06.894Z,3.43
2018-09-15T09:44:36.192Z,7.80
2018-09-15T09:47:05.505Z,4.97
2018-09-15T09:49:34.976Z,3.13
2018-09-15T09:52:04.305Z,7.63
2018-09-15T09:54:33.737Z,3.70
2018-09-15T09:57:04.165Z,5.33
2018-09-15T09:59:33.747Z,4.40
2018-09-15T10:02:07.547Z,3.07
2018-09-15T10:04:36.977Z,2.63
2018-09-15T10:07:06.526Z,5.50
2018-09-15T10:09:36.050Z,2.83
2018-09-15T10:12:05.558Z,3.10
2018-09-15T10:14:35.142Z,2.47
2018-09-15T10:17:04.615Z,2.40
2018-09-15T10:19:34.590Z,2.20
2018-09-15T10:22:04.094Z,4.93
2018-09-15T10:24:33.553Z,3.07
2018-09-15T10:27:02.904Z,4.93
2018-09-15T10:29:35.313Z,2.30
2018-09-15T10:32:04.956Z,1.43
2018-09-15T10:34:35.409Z,3.10
2018-09-15T10:37:05.242Z,3.33
2018-09-15T10:39:34.608Z,3.83
2018-09-15T10:42:03.982Z,2.40
2018-09-15T10:44:33.397Z,1.67
2018-09-15T10:47:02.788Z,1.10
2018-09-15T10:49:32.780Z,1.83
2018-09-15T10:52:03.373Z,1.30
2018-09-15T10:54:32.855Z,2.57
2018-09-15T10:57:02.329Z,3.40
2018-09-15T10:59:31.653Z,5.43
2018-09-15T11:02:00.938Z,4.20
2018-09-15T11:04:31.254Z,1.83
2018-09-15T11:07:01.358Z,4.77
2018-09-15T11:09:30.752Z,2.20
2018-09-15T11:12:00.101Z,2.43
2018-09-15T11:14:29.498Z,1.10
2018-09-15T11:16:59.098Z,1.60
2018-09-15T11:19:28.610Z,4.07
2018-09-15T11:21:57.927Z,7.63
2018-09-15T11:24:34.634Z,1.50
2018-09-15T11:27:05.250Z,1.63
2018-09-15T11:29:34.661Z,3.57
2018-09-15T11:32:04.062Z,1.73
2018-09-15T11:34:33.380Z,0.97
2018-09-15T11:37:02.794Z,3.67
2018-09-15T11:39:32.099Z,2.07
2018-09-15T11:42:01.408Z,2.23
2018-09-15T11:44:31.029Z,2.43
2018-09-15T11:47:00.481Z,0.73
2018-09-15T11:49:29.807Z,5.33
2018-09-15T11:51:59.183Z,2.93
2018-09-15T11:54:28.703Z,2.50
2018-09-15T11:56:58.063Z,2.40
2018-09-15T11:59:27.579Z,1.60
2018-09-15T12:01:57.098Z,4.90
2018-09-15T12:04:26.444Z,2.33
2018-09-15T12:06:56.679Z,2.03
2018-09-15T12:09:25.932Z,1.37
2018-09-15T12:11:55.269Z,1.80
2018-09-15T12:14:24.710Z,3.03
2018-09-15T12:16:54.175Z,1.43
2018-09-15T12:19:23.635Z,2.87
2018-09-15T12:21:53.183Z,9.80
2018-09-15T12:24:22.556Z,1.30
2018-09-15T12:26:52.675Z,1.83
2018-09-15T12:29:22.080Z,2.70
2018-09-15T12:31:52.111Z,3.23
2018-09-15T12:34:21.576Z,4.30
2018-09-15T12:36:58.226Z,3.60
2018-09-15T12:39:29.042Z,2.00
2018-09-15T12:41:58.725Z,2.83
2018-09-15T12:44:28.730Z,2.60
2018-09-15T12:46:59.263Z,3.90
2018-09-15T12:49:28.816Z,1.27
2018-09-15T12:51:58.208Z,3.43
2018-09-15T12:54:27.584Z,4.80
2018-09-15T12:56:56.991Z,3.70
2018-09-15T12:59:26.473Z,3.07
2018-09-15T13:01:56.027Z,2.10
2018-09-15T13:04:25.440Z,2.40
2018-09-15T13:06:55.392Z,5.87
2018-09-15T13:09:25.566Z,2.70
2018-09-15T13:11:54.869Z,3.43
2018-09-15T13:14:25.278Z,2.00
2018-09-15T13:16:54.610Z,3.13
2018-09-15T13:19:24.815Z,4.17
2018-09-15T13:21:55.176Z,4.23
2018-09-15T13:24:24.571Z,3.47
2018-09-15T13:26:55.406Z,2.20
2018-09-15T13:29:24.898Z,2.50
2018-09-15T13:31:55.480Z,3.70
2018-09-15T13:34:24.871Z,5.43
2018-09-15T13:36:54.297Z,3.40
2018-09-15T13:39:23.844Z,4.17
2018-09-15T13:41:53.571Z,6.67
2018-09-15T13:44:22.935Z,1.60
2018-09-15T13:46:52.405Z,2.93
2018-09-15T13:49:22.864Z,3.83
2018-09-15T13:51:53.264Z,4.53
2018-09-15T13:54:23.285Z,2.90
2018-09-15T13:56:52.857Z,4.30
2018-09-15T13:59:22.253Z,4.20
2018-09-15T14:01:51.680Z,5.10
2018-09-15T14:04:21.044Z,4.90
2018-09-15T14:06:50.876Z,7.13
2018-09-15T14:09:20.401Z,5.03
2018-09-15T14:11:49.776Z,8.77
2018-09-15T14:14:19.118Z,4.23
2018-09-15T14:16:48.541Z,3.23
2018-09-15T14:19:17.815Z,4.63
2018-09-15T14:21:47.279Z,5.07
2018-09-15T14:24:16.640Z,3.70
2018-09-15T14:26:46.287Z,2.50
2018-09-15T14:29:15.639Z,4.33
2018-09-15T14:31:46.046Z,2.90
2018-09-15T14:34:16.006Z,3.87
2018-09-15T14:36:46.086Z,5.30
2018-09-15T14:39:15.644Z,2.63
2018-09-15T14:41:46.725Z,6.53
2018-09-15T14:44:16.889Z,3.97
2018-09-15T14:46:47.620Z,5.93
2018-09-15T14:49:16.984Z,2.20
2018-09-15T14:51:46.401Z,3.70
2018-09-15T14:54:15.790Z,3.90
2018-09-15T14:56:45.296Z,8.30
2018-09-15T14:59:14.992Z,5.53
2018-09-15T15:01:44.914Z,7.87
2018-09-15T15:04:14.331Z,9.80
2018-09-15T15:06:43.852Z,7.70
2018-09-15T15:09:13.339Z,4.20
2018-09-15T15:11:43.768Z,3.63
2018-09-15T15:14:13.073Z,5.10
2018-09-15T15:16:42.401Z,3.60
2018-09-15T15:19:11.730Z,4.40
2018-09-15T15:21:41.224Z,6.30
2018-09-15T15:24:10.671Z,6.23
2018-09-15T15:26:40.007Z,4.40
2018-09-15T15:29:09.343Z,6.23
2018-09-15T15:31:38.737Z,1.60
2018-09-15T15:34:08.070Z,3.97
2018-09-15T15:36:37.607Z,1.80
2018-09-15T15:39:08.561Z,6.07
2018-09-15T15:41:38.129Z,3.73
2018-09-15T15:44:07.450Z,2.87
2018-09-15T15:46:36.911Z,6.57
2018-09-15T15:49:06.380Z,3.27
2018-09-15T15:51:35.909Z,4.47
2018-09-15T15:56:41.943Z,4.30
2018-09-15T15:59:11.485Z,10.53
2018-09-15T16:01:40.880Z,4.93
2018-09-15T16:04:10.748Z,7.87
2018-09-15T16:06:40.113Z,3.90
2018-09-15T16:09:09.555Z,3.27
2018-09-15T16:11:39.045Z,3.37
2018-09-15T16:14:08.391Z,7.73
2018-09-15T16:16:38.065Z,5.50
2018-09-15T16:19:07.514Z,2.40
2018-09-15T16:21:36.905Z,6.60
2018-09-15T16:24:06.787Z,11.83
2018-09-15T16:26:36.435Z,2.57
2018-09-15T16:29:05.762Z,3.70
2018-09-15T16:31:35.204Z,2.90
2018-09-15T16:34:04.517Z,10.90
2018-09-15T16:36:33.838Z,3.90
2018-09-15T16:39:03.444Z,3.63
2018-09-15T16:41:32.937Z,4.93
2018-09-15T16:44:02.624Z,2.57
2018-09-15T16:46:32.141Z,2.93
2018-09-15T16:49:01.692Z,5.10
2018-09-15T16:51:31.345Z,5.90
2018-09-15T16:54:01.050Z,4.90
2018-09-15T16:56:30.412Z,2.57
2018-09-15T16:58:59.911Z,2.87
2018-09-15T17:01:29.936Z,3.70
2018-09-15T17:04:01.703Z,5.20
2018-09-15T17:06:31.007Z,6.27
2018-09-15T17:09:00.091Z,4.93
2018-09-15T17:11:30.961Z,2.23
2018-09-15T17:14:08.055Z,6.03
2018-09-15T17:16:41.439Z,4.27
2018-09-15T17:19:12.027Z,6.00
2018-09-15T17:21:41.808Z,1.97
2018-09-15T17:24:12.272Z,2.10
2018-09-15T17:26:42.479Z,5.10
2018-09-15T17:29:12.252Z,2.80
2018-09-15T17:31:42.337Z,3.77
2018-09-15T17:34:11.836Z,8.33
2018-09-15T17:36:41.576Z,6.10
2018-09-15T17:39:13.046Z,4.03
2018-09-15T17:41:42.658Z,8.23
2018-09-15T17:44:12.008Z,4.80
2018-09-15T17:46:41.354Z,7.90
2018-09-15T17:49:10.884Z,7.97
2018-09-15T17:51:40.299Z,7.60
2018-09-15T17:54:09.928Z,2.57
2018-09-15T17:56:39.266Z,4.97
2018-09-15T17:59:08.958Z,4.80
2018-09-15T18:01:38.462Z,6.90
2018-09-15T18:04:08.093Z,10.43
2018-09-15T18:06:37.444Z,2.70
2018-09-15T18:09:08.062Z,4.73
2018-09-15T18:11:37.474Z,7.27
2018-09-15T18:14:09.491Z,3.40
2018-09-15T18:16:39.206Z,7.83
2018-09-15T18:19:08.712Z,4.70
2018-09-15T18:21:38.027Z,8.57
2018-09-15T18:24:07.502Z,6.97
2018-09-15T18:26:36.987Z,5.70
2018-09-15T18:29:06.407Z,5.37
2018-09-15T18:31:35.824Z,8.63
2018-09-15T18:34:05.139Z,5.33
2018-09-15T18:36:34.577Z,3.13
2018-09-15T18:39:05.045Z,4.60
2018-09-15T18:41:34.371Z,7.60
2018-09-15T18:44:03.741Z,4.73
2018-09-15T18:46:33.099Z,5.10
2018-09-15T18:49:02.752Z,7.43
2018-09-15T18:51:32.136Z,5.00
2018-09-15T18:54:02.464Z,7.53
2018-09-15T18:56:31.930Z,7.00
2018-09-15T18:59:01.349Z,6.83
2018-09-15T19:01:30.784Z,7.03
2018-09-15T19:04:00.074Z,10.50
2018-09-15T19:06:29.609Z,7.97
2018-09-15T19:08:59.160Z,9.27
2018-09-15T19:11:28.429Z,6.83
2018-09-15T19:13:57.912Z,19.60
2018-09-15T19:16:27.269Z,10.87
2018-09-15T19:18:56.635Z,12.97
2018-09-15T19:21:26.093Z,19.17
2018-09-15T19:23:55.700Z,13.57
2018-09-15T19:26:25.173Z,11.43
2018-09-15T19:28:54.475Z,12.43
2018-09-15T19:31:23.914Z,5.60
2018-09-15T19:33:53.422Z,11.13
2018-09-15T19:36:23.043Z,8.83
2018-09-15T19:38:52.574Z,16.43
2018-09-15T19:41:22.139Z,11.23
2018-09-15T19:43:51.622Z,12.37
2018-09-15T19:46:21.140Z,15.13
2018-09-15T19:48:50.439Z,11.03
2018-09-15T19:51:19.945Z,13.67
2018-09-15T19:53:49.348Z,7.40
2018-09-15T19:56:18.754Z,7.03
2018-09-15T19:58:48.489Z,8.10
2018-09-15T20:01:17.976Z,23.47
2018-09-15T20:03:47.369Z,9.83
2018-09-15T20:06:16.825Z,10.67
2018-09-15T20:08:46.276Z,9.30
2018-09-15T20:11:15.616Z,8.87
2018-09-15T20:13:45.131Z,8.60
2018-09-15T20:16:13.487Z,10.03
2018-09-15T20:18:41.604Z,5.77
2018-09-15T20:21:09.702Z,10.83
2018-09-15T20:23:39.034Z,6.07
2018-09-15T20:26:08.376Z,6.83
2018-09-15T20:28:38.047Z,5.90
2018-09-15T20:31:07.382Z,9.50
2018-09-15T20:33:36.879Z,9.70
2018-09-15T20:36:06.680Z,6.63
2018-09-15T20:38:36.236Z,10.47
2018-09-15T20:41:06.064Z,7.70
2018-09-15T20:43:35.492Z,8.07
2018-09-15T20:46:04.825Z,5.63
2018-09-15T20:48:34.287Z,5.20
2018-09-15T20:51:03.930Z,13.00
2018-09-15T20:53:33.328Z,8.57
2018-09-15T20:56:02.725Z,10.23
2018-09-15T20:58:32.191Z,9.53
2018-09-15T21:01:01.690Z,11.27
2018-09-15T21:03:32.153Z,10.50
2018-09-15T21:06:02.015Z,15.03
2018-09-15T21:08:31.477Z,6.83
2018-09-15T21:11:01.007Z,7.80
2018-09-15T21:13:30.442Z,7.70
2018-09-15T21:16:00.108Z,9.97
2018-09-15T21:18:29.516Z,7.10
2018-09-15T21:20:59.130Z,8.30
2018-09-15T21:23:28.457Z,8.23
2018-09-15T21:25:57.821Z,10.03
2018-09-15T21:28:27.255Z,9.70
2018-09-15T21:30:56.640Z,9.53
2018-09-15T21:33:25.989Z,8.00
2018-09-15T21:35:55.418Z,7.10
2018-09-15T21:38:25.045Z,10.40
2018-09-15T21:40:54.699Z,9.33
2018-09-15T21:43:24.195Z,9.20
2018-09-15T21:45:53.558Z,8.60
2018-09-15T21:48:23.050Z,6.97
2018-09-15T21:50:52.540Z,6.23
2018-09-15T21:53:22.068Z,7.43
2018-09-15T21:55:51.539Z,8.40
2018-09-15T21:58:21.154Z,8.23
2018-09-15T22:00:54.947Z,11.10
2018-09-15T22:03:24.271Z,9.17
2018-09-15T22:05:53.578Z,12.77
2018-09-15T22:08:22.921Z,10.70
2018-09-15T22:10:52.320Z,8.80
2018-09-15T22:13:21.761Z,5.77
2018-09-15T22:15:51.141Z,9.80
2018-09-15T22:18:20.562Z,12.90
2018-09-15T22:20:49.967Z,12.50
2018-09-15T22:23:19.882Z,9.17
2018-09-15T22:25:49.210Z,8.73
2018-09-15T22:28:18.818Z,9.80
2018-09-15T22:30:48.331Z,10.43
2018-09-15T22:33:17.956Z,9.60
2018-09-15T22:35:47.455Z,8.60
2018-09-15T22:38:16.753Z,5.80
2018-09-15T22:40:46.069Z,8.23
2018-09-15T22:43:15.475Z,10.70
2018-09-15T22:45:45.084Z,9.20
2018-09-15T22:48:14.655Z,8.30
2018-09-15T22:50:44.114Z,5.77
2018-09-15T22:53:13.465Z,8.10
2018-09-15T22:55:43.082Z,5.90
2018-09-15T22:58:12.623Z,9.47
2018-09-15T23:00:42.159Z,8.03
2018-09-15T23:03:11.650Z,8.37
2018-09-15T23:05:41.124Z,15.93
2018-09-15T23:08:10.745Z,7.33
2018-09-15T23:10:40.069Z,8.07
2018-09-15T23:13:09.413Z,8.77
2018-09-15T23:15:38.718Z,7.63
2018-09-15T23:18:09.038Z,7.63
2018-09-15T23:20:38.725Z,9.47
2018-09-15T23:23:07.974Z,10.87
2018-09-15T23:25:37.270Z,6.20
2018-09-15T23:28:06.606Z,11.27
2018-09-15T23:30:36.012Z,12.10
2018-09-15T23:33:06.044Z,11.40
2018-09-15T23:35:35.376Z,8.97
2018-09-15T23:38:04.834Z,12.70
2018-09-15T23:40:34.155Z,7.60
2018-09-15T23:43:03.475Z,11.10
2018-09-15T23:45:32.856Z,12.43
2018-09-15T23:48:02.314Z,16.40
2018-09-15T23:50:31.641Z,7.90
2018-09-15T23:53:00.968Z,11.00
2018-09-15T23:55:30.396Z,14.73
2018-09-15T23:57:59.726Z,6.80
